createdAt,value
2018-06-01T00:00:48.693Z,1010.88
2018-06-01T00:01:48.712Z,1010.90
2018-06-01T00:02:48.730Z,1010.90
2018-06-01T00:03:48.755Z,1010.92
2018-06-01T00:04:48.758Z,1010.92
2018-06-01T00:05:48.775Z,1010.90
2018-06-01T00:06:48.794Z,1010.94
2018-06-01T00:07:48.809Z,1010.92
2018-06-01T00:08:48.830Z,1010.92
2018-06-01T00:09:48.896Z,1010.92
2018-06-01T00:10:48.857Z,1010.88
2018-06-01T00:11:48.876Z,1010.90
2018-06-01T00:12:48.891Z,1010.90
2018-06-01T00:13:48.907Z,1010.89
2018-06-01T00:14:48.932Z,1010.91
2018-06-01T00:15:49.023Z,1010.89
2018-06-01T00:16:48.957Z,1010.90
2018-06-01T00:17:48.981Z,1010.86
2018-06-01T00:18:48.992Z,1010.82
2018-06-01T00:19:49.016Z,1010.82
2018-06-01T00:20:49.030Z,1010.82
2018-06-01T00:21:49.098Z,1010.84
2018-06-01T00:22:49.062Z,1010.78
2018-06-01T00:23:49.078Z,1010.81
2018-06-01T00:24:49.092Z,1010.77
2018-06-01T00:25:49.113Z,1010.79
2018-06-01T00:26:49.176Z,1010.78
2018-06-01T00:27:49.194Z,1010.76
2018-06-01T00:28:49.162Z,1010.76
2018-06-01T00:29:49.181Z,1010.75
2018-06-01T00:30:49.195Z,1010.74
2018-06-01T00:31:49.213Z,1010.78
2018-06-01T00:32:49.234Z,1010.76
2018-06-01T00:33:49.251Z,1010.76
2018-06-01T00:34:49.264Z,1010.74
2018-06-01T00:35:49.282Z,1010.76
2018-06-01T00:36:49.300Z,1010.78
2018-06-01T00:37:49.314Z,1010.78
2018-06-01T00:38:49.378Z,1010.75
2018-06-01T00:39:49.343Z,1010.79
2018-06-01T00:40:49.367Z,1010.77
2018-06-01T00:41:49.383Z,1010.74
2018-06-01T00:42:49.398Z,1010.76
2018-06-01T00:43:49.417Z,1010.74
2018-06-01T00:44:49.432Z,1010.75
2018-06-01T00:45:49.449Z,1010.71
2018-06-01T00:46:49.462Z,1010.74
2018-06-01T00:47:49.485Z,1010.73
2018-06-01T00:48:49.493Z,1010.69
2018-06-01T00:49:49.517Z,1010.69
2018-06-01T00:50:49.585Z,1010.70
2018-06-01T00:51:49.547Z,1010.71
2018-06-01T00:52:49.564Z,1010.70
2018-06-01T00:53:49.587Z,1010.70
2018-06-01T00:54:49.598Z,1010.71
2018-06-01T00:55:49.619Z,1010.69
2018-06-01T00:56:49.682Z,1010.69
2018-06-01T00:57:49.649Z,1010.70
2018-06-01T00:58:49.734Z,1010.70
2018-06-01T00:59:49.685Z,1010.67
2018-06-01T01:00:49.699Z,1010.67
2018-06-01T01:01:49.713Z,1010.68
2018-06-01T01:02:49.788Z,1010.69
2018-06-01T01:03:49.745Z,1010.65
2018-06-01T01:04:49.815Z,1010.67
2018-06-01T01:05:49.784Z,1010.66
2018-06-01T01:06:49.799Z,1010.63
2018-06-01T01:07:49.818Z,1010.62
2018-06-01T01:08:49.838Z,1010.64
2018-06-01T01:09:49.854Z,1010.67
2018-06-01T01:10:49.953Z,1010.63
2018-06-01T01:11:49.881Z,1010.61
2018-06-01T01:12:49.911Z,1010.62
2018-06-01T01:13:49.918Z,1010.62
2018-06-01T01:14:49.938Z,1010.65
2018-06-01T01:15:49.953Z,1010.61
2018-06-01T01:16:50.043Z,1010.62
2018-06-01T01:17:49.986Z,1010.58
2018-06-01T01:18:49.998Z,1010.63
2018-06-01T01:19:50.019Z,1010.57
2018-06-01T01:20:50.092Z,1010.57
2018-06-01T01:21:50.075Z,1010.58
2018-06-01T01:22:50.063Z,1010.59
2018-06-01T01:23:50.087Z,1010.55
2018-06-01T01:24:50.101Z,1010.57
2018-06-01T01:25:50.117Z,1010.55
2018-06-01T01:26:50.137Z,1010.57
2018-06-01T01:27:50.154Z,1010.55
2018-06-01T01:28:50.167Z,1010.54
2018-06-01T01:29:50.189Z,1010.52
2018-06-01T01:30:50.198Z,1010.50
2018-06-01T01:31:50.216Z,1010.48
2018-06-01T01:32:50.296Z,1010.50
2018-06-01T01:33:50.257Z,1010.49
2018-06-01T01:34:50.274Z,1010.46
2018-06-01T01:35:50.283Z,1010.48
2018-06-01T01:36:50.306Z,1010.45
2018-06-01T01:37:50.323Z,1010.47
2018-06-01T01:38:50.342Z,1010.45
2018-06-01T01:39:50.355Z,1010.46
2018-06-01T01:40:50.368Z,1010.43
2018-06-01T01:41:50.382Z,1010.44
2018-06-01T01:42:50.403Z,1010.42
2018-06-01T01:43:50.417Z,1010.43
2018-06-01T01:44:50.485Z,1010.41
2018-06-01T01:45:50.457Z,1010.44
2018-06-01T01:46:50.508Z,1010.42
2018-06-01T01:47:50.496Z,1010.42
2018-06-01T01:48:50.512Z,1010.45
2018-06-01T01:49:50.530Z,1010.42
2018-06-01T01:50:50.547Z,1010.38
2018-06-01T01:51:50.554Z,1010.39
2018-06-01T01:52:50.628Z,1010.40
2018-06-01T01:53:50.595Z,1010.39
2018-06-01T01:54:50.604Z,1010.36
2018-06-01T01:55:50.626Z,1010.39
2018-06-01T01:56:50.642Z,1010.39
2018-06-01T01:57:50.659Z,1010.41
2018-06-01T01:58:50.771Z,1010.45
2018-06-01T01:59:50.694Z,1010.39
2018-06-01T02:00:50.709Z,1010.45
2018-06-01T02:01:50.725Z,1010.43
2018-06-01T02:02:50.795Z,1010.42
2018-06-01T02:03:50.762Z,1010.42
2018-06-01T02:04:50.805Z,1010.42
2018-06-01T02:05:50.789Z,1010.43
2018-06-01T02:06:50.813Z,1010.46
2018-06-01T02:07:50.823Z,1010.46
2018-06-01T02:08:50.841Z,1010.46
2018-06-01T02:09:50.860Z,1010.47
2018-06-01T02:10:50.940Z,1010.50
2018-06-01T02:11:50.894Z,1010.50
2018-06-01T02:12:50.912Z,1010.52
2018-06-01T02:13:50.922Z,1010.54
2018-06-01T02:14:50.955Z,1010.53
2018-06-01T02:15:50.962Z,1010.52
2018-06-01T02:16:51.000Z,1010.49
2018-06-01T02:17:50.993Z,1010.51
2018-06-01T02:18:51.009Z,1010.51
2018-06-01T02:19:51.075Z,1010.49
2018-06-01T02:20:51.045Z,1010.47
2018-06-01T02:21:51.058Z,1010.43
2018-06-01T02:22:51.079Z,1010.42
2018-06-01T02:23:51.091Z,1010.38
2018-06-01T02:24:51.108Z,1010.41
2018-06-01T02:25:51.126Z,1010.38
2018-06-01T02:26:51.152Z,1010.40
2018-06-01T02:27:51.162Z,1010.42
2018-06-01T02:28:51.209Z,1010.41
2018-06-01T02:29:51.190Z,1010.40
2018-06-01T02:30:51.213Z,1010.43
2018-06-01T02:31:51.229Z,1010.41
2018-06-01T02:32:51.244Z,1010.40
2018-06-01T02:33:51.256Z,1010.43
2018-06-01T02:34:51.278Z,1010.39
2018-06-01T02:35:51.291Z,1010.39
2018-06-01T02:36:51.313Z,1010.39
2018-06-01T02:37:51.329Z,1010.41
2018-06-01T02:38:51.344Z,1010.42
2018-06-01T02:39:51.359Z,1010.46
2018-06-01T02:40:51.379Z,1010.46
2018-06-01T02:41:51.392Z,1010.49
2018-06-01T02:42:51.413Z,1010.49
2018-06-01T02:43:51.426Z,1010.48
2018-06-01T02:44:51.441Z,1010.48
2018-06-01T02:45:51.456Z,1010.50
2018-06-01T02:46:51.478Z,1010.49
2018-06-01T02:47:51.492Z,1010.49
2018-06-01T02:48:51.510Z,1010.46
2018-06-01T02:49:51.525Z,1010.45
2018-06-01T02:50:51.547Z,1010.43
2018-06-01T02:51:51.563Z,1010.41
2018-06-01T02:52:51.576Z,1010.44
2018-06-01T02:53:51.594Z,1010.44
2018-06-01T02:54:51.605Z,1010.43
2018-06-01T02:55:51.674Z,1010.39
2018-06-01T02:56:51.639Z,1010.40
2018-06-01T02:57:51.657Z,1010.38
2018-06-01T02:58:51.678Z,1010.38
2018-06-01T02:59:51.739Z,1010.43
2018-06-01T03:00:51.709Z,1010.44
2018-06-01T03:02:59.600Z,1010.40
2018-06-01T03:03:51.758Z,1010.39
2018-06-01T03:04:51.776Z,1010.40
2018-06-01T03:05:51.793Z,1010.41
2018-06-01T03:06:51.807Z,1010.41
2018-06-01T03:07:51.824Z,1010.35
2018-06-01T03:08:52.044Z,1010.36
2018-06-01T03:09:51.856Z,1010.36
2018-06-01T03:10:51.875Z,1010.35
2018-06-01T03:11:51.900Z,1010.34
2018-06-01T03:12:51.903Z,1010.32
2018-06-01T03:13:51.919Z,1010.35
2018-06-01T03:14:51.941Z,1010.35
2018-06-01T03:15:51.954Z,1010.29
2018-06-01T03:16:51.969Z,1010.35
2018-06-01T03:17:52.006Z,1010.35
2018-06-01T03:18:52.006Z,1010.36
2018-06-01T03:19:52.023Z,1010.35
2018-06-01T03:20:52.041Z,1010.34
2018-06-01T03:21:52.057Z,1010.35
2018-06-01T03:22:52.066Z,1010.31
2018-06-01T03:23:52.146Z,1010.35
2018-06-01T03:24:52.105Z,1010.32
2018-06-01T03:25:52.119Z,1010.30
2018-06-01T03:26:52.138Z,1010.30
2018-06-01T03:27:52.151Z,1010.28
2018-06-01T03:28:52.168Z,1010.32
2018-06-01T03:29:52.194Z,1010.31
2018-06-01T03:30:52.211Z,1010.29
2018-06-01T03:31:52.224Z,1010.27
2018-06-01T03:32:52.232Z,1010.28
2018-06-01T03:33:52.257Z,1010.26
2018-06-01T03:34:52.261Z,1010.27
2018-06-01T03:35:52.284Z,1010.24
2018-06-01T03:36:52.295Z,1010.24
2018-06-01T03:37:52.314Z,1010.28
2018-06-01T03:38:52.337Z,1010.25
2018-06-01T03:39:52.355Z,1010.23
2018-06-01T03:40:52.363Z,1010.24
2018-06-01T03:41:52.385Z,1010.30
2018-06-01T03:42:52.400Z,1010.26
2018-06-01T03:43:52.410Z,1010.22
2018-06-01T03:44:52.433Z,1010.23
2018-06-01T03:45:52.445Z,1010.24
2018-06-01T03:46:52.460Z,1010.23
2018-06-01T03:47:52.486Z,1010.21
2018-06-01T03:48:52.492Z,1010.20
2018-06-01T03:49:52.509Z,1010.23
2018-06-01T03:50:52.524Z,1010.23
2018-06-01T03:51:52.539Z,1010.21
2018-06-01T03:52:52.563Z,1010.20
2018-06-01T03:53:52.579Z,1010.18
2018-06-01T03:54:52.630Z,1010.16
2018-06-01T03:55:52.604Z,1010.16
2018-06-01T03:56:52.627Z,1010.15
2018-06-01T03:57:52.644Z,1010.14
2018-06-01T03:58:52.653Z,1010.13
2018-06-01T03:59:52.675Z,1010.15
2018-06-01T04:00:52.688Z,1010.16
2018-06-01T04:01:52.709Z,1010.18
2018-06-01T04:02:52.798Z,1010.17
2018-06-01T04:03:52.739Z,1010.15
2018-06-01T04:04:52.752Z,1010.18
2018-06-01T04:05:52.767Z,1010.17
2018-06-01T04:06:52.790Z,1010.18
2018-06-01T04:07:52.803Z,1010.20
2018-06-01T04:08:52.823Z,1010.16
2018-06-01T04:09:52.839Z,1010.20
2018-06-01T04:10:52.850Z,1010.22
2018-06-01T04:11:52.866Z,1010.21
2018-06-01T04:12:52.964Z,1010.23
2018-06-01T04:13:52.899Z,1010.25
2018-06-01T04:14:52.918Z,1010.27
2018-06-01T04:15:52.934Z,1010.28
2018-06-01T04:16:52.952Z,1010.25
2018-06-01T04:17:52.970Z,1010.27
2018-06-01T04:18:53.037Z,1010.26
2018-06-01T04:19:53.001Z,1010.30
2018-06-01T04:20:53.020Z,1010.29
2018-06-01T04:21:53.035Z,1010.29
2018-06-01T04:22:53.051Z,1010.28
2018-06-01T04:23:53.069Z,1010.27
2018-06-01T04:24:53.129Z,1010.27
2018-06-01T04:25:53.098Z,1010.29
2018-06-01T04:26:53.113Z,1010.25
2018-06-01T04:27:53.129Z,1010.22
2018-06-01T04:28:53.152Z,1010.22
2018-06-01T04:29:53.168Z,1010.22
2018-06-01T04:30:53.179Z,1010.24
2018-06-01T04:31:53.197Z,1010.27
2018-06-01T04:32:53.217Z,1010.21
2018-06-01T04:33:53.228Z,1010.22
2018-06-01T04:34:53.248Z,1010.17
2018-06-01T04:35:53.269Z,1010.21
2018-06-01T04:36:53.283Z,1010.19
2018-06-01T04:37:53.296Z,1010.21
2018-06-01T04:38:53.319Z,1010.21
2018-06-01T04:39:53.326Z,1010.19
2018-06-01T04:40:53.345Z,1010.24
2018-06-01T04:41:53.365Z,1010.19
2018-06-01T04:42:53.381Z,1010.21
2018-06-01T04:43:53.394Z,1010.24
2018-06-01T04:44:53.412Z,1010.25
2018-06-01T04:45:53.431Z,1010.22
2018-06-01T04:46:53.445Z,1010.22
2018-06-01T04:47:53.457Z,1010.23
2018-06-01T04:48:53.475Z,1010.23
2018-06-01T04:49:53.496Z,1010.22
2018-06-01T04:50:53.508Z,1010.19
2018-06-01T04:51:53.529Z,1010.23
2018-06-01T04:52:53.542Z,1010.18
2018-06-01T04:53:53.557Z,1010.20
2018-06-01T04:54:53.572Z,1010.22
2018-06-01T04:55:53.712Z,1010.24
2018-06-01T04:56:53.602Z,1010.23
2018-06-01T04:57:53.622Z,1010.26
2018-06-01T04:58:53.637Z,1010.26
2018-06-01T04:59:53.653Z,1010.25
2018-06-01T05:00:53.674Z,1010.26
2018-06-01T05:01:53.733Z,1010.26
2018-06-01T05:02:53.709Z,1010.27
2018-06-01T05:03:53.723Z,1010.22
2018-06-01T05:04:53.732Z,1010.24
2018-06-01T05:05:53.755Z,1010.25
2018-06-01T05:06:53.771Z,1010.26
2018-06-01T05:07:53.832Z,1010.24
2018-06-01T05:08:53.798Z,1010.25
2018-06-01T05:09:53.814Z,1010.23
2018-06-01T05:10:53.838Z,1010.21
2018-06-01T05:11:53.850Z,1010.19
2018-06-01T05:12:53.868Z,1010.21
2018-06-01T05:13:53.937Z,1010.21
2018-06-01T05:14:53.895Z,1010.22
2018-06-01T05:15:53.913Z,1010.25
2018-06-01T05:16:53.934Z,1010.25
2018-06-01T05:17:53.948Z,1010.25
2018-06-01T05:18:53.964Z,1010.25
2018-06-01T05:19:53.975Z,1010.24
2018-06-01T05:20:53.997Z,1010.23
2018-06-01T05:21:54.011Z,1010.23
2018-06-01T05:22:54.032Z,1010.26
2018-06-01T05:23:54.045Z,1010.28
2018-06-01T05:24:54.059Z,1010.27
2018-06-01T05:25:54.078Z,1010.29
2018-06-01T05:26:54.098Z,1010.30
2018-06-01T05:27:54.106Z,1010.27
2018-06-01T05:28:54.122Z,1010.30
2018-06-01T05:29:54.138Z,1010.26
2018-06-01T05:30:54.160Z,1010.28
2018-06-01T05:31:54.212Z,1010.27
2018-06-01T05:32:54.191Z,1010.24
2018-06-01T05:33:54.206Z,1010.26
2018-06-01T05:34:54.222Z,1010.21
2018-06-01T05:35:54.241Z,1010.28
2018-06-01T05:36:54.258Z,1010.28
2018-06-01T05:37:54.309Z,1010.29
2018-06-01T05:38:54.291Z,1010.25
2018-06-01T05:39:54.302Z,1010.27
2018-06-01T05:40:54.316Z,1010.26
2018-06-01T05:41:54.336Z,1010.27
2018-06-01T05:42:54.349Z,1010.24
2018-06-01T05:43:54.371Z,1010.25
2018-06-01T05:44:54.401Z,1010.25
2018-06-01T05:45:54.403Z,1010.21
2018-06-01T05:46:54.421Z,1010.28
2018-06-01T05:47:54.437Z,1010.28
2018-06-01T05:48:54.450Z,1010.24
2018-06-01T05:49:54.474Z,1010.28
2018-06-01T05:50:54.505Z,1010.30
2018-06-01T05:51:54.529Z,1010.24
2018-06-01T05:52:54.510Z,1010.24
2018-06-01T05:53:54.525Z,1010.26
2018-06-01T05:54:54.550Z,1010.25
2018-06-01T05:55:54.564Z,1010.20
2018-06-01T05:56:54.599Z,1010.26
2018-06-01T05:57:54.594Z,1010.24
2018-06-01T05:58:54.610Z,1010.24
2018-06-01T05:59:54.628Z,1010.24
2018-06-01T06:00:54.644Z,1010.26
2018-06-01T06:01:54.657Z,1010.20
2018-06-01T06:02:54.678Z,1010.24
2018-06-01T06:03:54.695Z,1010.24
2018-06-01T06:04:54.709Z,1010.23
2018-06-01T06:05:54.730Z,1010.25
2018-06-01T06:06:54.744Z,1010.23
2018-06-01T06:07:54.758Z,1010.24
2018-06-01T06:08:54.818Z,1010.23
2018-06-01T06:09:54.786Z,1010.26
2018-06-01T06:10:54.808Z,1010.21
2018-06-01T06:11:54.826Z,1010.24
2018-06-01T06:12:54.843Z,1010.24
2018-06-01T06:13:54.855Z,1010.27
2018-06-01T06:14:54.910Z,1010.28
2018-06-01T06:15:54.889Z,1010.34
2018-06-01T06:16:54.904Z,1010.35
2018-06-01T06:17:54.917Z,1010.37
2018-06-01T06:18:54.934Z,1010.40
2018-06-01T06:19:55.026Z,1010.41
2018-06-01T06:20:54.972Z,1010.43
2018-06-01T06:21:54.988Z,1010.42
2018-06-01T06:22:55.006Z,1010.43
2018-06-01T06:23:55.013Z,1010.44
2018-06-01T06:24:55.036Z,1010.44
2018-06-01T06:25:55.057Z,1010.40
2018-06-01T06:26:55.070Z,1010.43
2018-06-01T06:27:55.080Z,1010.43
2018-06-01T06:28:55.103Z,1010.43
2018-06-01T06:29:55.116Z,1010.44
2018-06-01T06:30:55.137Z,1010.39
2018-06-01T06:31:55.149Z,1010.44
2018-06-01T06:32:55.165Z,1010.45
2018-06-01T06:33:55.185Z,1010.42
2018-06-01T06:34:55.200Z,1010.42
2018-06-01T06:35:55.211Z,1010.39
2018-06-01T06:36:55.236Z,1010.46
2018-06-01T06:37:55.245Z,1010.41
2018-06-01T06:38:55.268Z,1010.43
2018-06-01T06:39:55.284Z,1010.45
2018-06-01T06:40:55.299Z,1010.44
2018-06-01T06:41:55.315Z,1010.48
2018-06-01T06:42:55.328Z,1010.46
2018-06-01T06:43:55.351Z,1010.42
2018-06-01T06:44:55.365Z,1010.44
2018-06-01T06:45:55.384Z,1010.41
2018-06-01T06:46:55.398Z,1010.47
2018-06-01T06:47:55.417Z,1010.45
2018-06-01T06:48:55.430Z,1010.47
2018-06-01T06:49:55.451Z,1010.44
2018-06-01T06:50:55.472Z,1010.44
2018-06-01T06:51:55.525Z,1010.50
2018-06-01T06:52:55.505Z,1010.49
2018-06-01T06:53:55.519Z,1010.52
2018-06-01T06:54:55.533Z,1010.56
2018-06-01T06:55:55.554Z,1010.52
2018-06-01T06:56:55.575Z,1010.53
2018-06-01T06:57:55.604Z,1010.53
2018-06-01T06:58:55.600Z,1010.51
2018-06-01T06:59:55.621Z,1010.51
2018-06-01T07:00:55.642Z,1010.55
2018-06-01T07:01:55.657Z,1010.48
2018-06-01T07:02:55.677Z,1010.48
2018-06-01T07:03:55.695Z,1010.44
2018-06-01T07:04:55.708Z,1010.51
2018-06-01T07:05:55.738Z,1010.48
2018-06-01T07:06:55.746Z,1010.53
2018-06-01T07:07:55.763Z,1010.55
2018-06-01T07:08:55.777Z,1010.54
2018-06-01T07:09:55.798Z,1010.57
2018-06-01T07:10:55.810Z,1010.55
2018-06-01T07:11:55.830Z,1010.61
2018-06-01T07:12:55.844Z,1010.55
2018-06-01T07:13:55.863Z,1010.65
2018-06-01T07:14:55.885Z,1010.63
2018-06-01T07:15:55.900Z,1010.62
2018-06-01T07:16:55.993Z,1010.52
2018-06-01T07:17:55.932Z,1010.65
2018-06-01T07:18:55.957Z,1010.52
2018-06-01T07:19:55.970Z,1010.60
2018-06-01T07:20:55.989Z,1010.61
2018-06-01T07:21:56.008Z,1010.62
2018-06-01T07:22:56.072Z,1010.61
2018-06-01T07:24:56.064Z,1010.64
2018-06-01T07:25:56.079Z,1010.65
2018-06-01T07:26:56.093Z,1010.60
2018-06-01T07:27:56.110Z,1010.51
2018-06-01T07:28:56.129Z,1010.59
2018-06-01T07:29:56.151Z,1010.62
2018-06-01T07:30:56.168Z,1010.64
2018-06-01T07:31:56.191Z,1010.65
2018-06-01T07:32:56.207Z,1010.66
2018-06-01T07:33:56.223Z,1010.65
2018-06-01T07:34:56.239Z,1010.64
2018-06-01T07:35:56.254Z,1010.72
2018-06-01T07:36:56.274Z,1010.69
2018-06-01T07:37:56.298Z,1010.66
2018-06-01T07:38:56.313Z,1010.74
2018-06-01T07:39:56.333Z,1010.70
2018-06-01T07:40:56.346Z,1010.77
2018-06-01T07:41:56.363Z,1010.75
2018-06-01T07:42:56.381Z,1010.80
2018-06-01T07:43:56.401Z,1010.85
2018-06-01T07:44:56.429Z,1010.85
2018-06-01T07:45:56.438Z,1010.83
2018-06-01T07:46:56.485Z,1010.80
2018-06-01T07:47:56.472Z,1010.84
2018-06-01T07:48:56.497Z,1010.80
2018-06-01T07:49:56.513Z,1010.75
2018-06-01T07:50:56.534Z,1010.87
2018-06-01T07:51:56.544Z,1010.73
2018-06-01T07:52:56.564Z,1010.73
2018-06-01T07:53:56.586Z,1010.70
2018-06-01T07:54:56.605Z,1010.77
2018-06-01T07:55:56.616Z,1010.82
2018-06-01T07:56:56.640Z,1010.79
2018-06-01T07:57:56.667Z,1010.79
2018-06-01T07:58:56.677Z,1010.77
2018-06-01T07:59:56.694Z,1010.78
2018-06-01T08:00:56.715Z,1010.76
2018-06-01T08:01:56.777Z,1010.75
2018-06-01T08:02:56.745Z,1010.75
2018-06-01T08:03:56.765Z,1010.83
2018-06-01T08:04:56.788Z,1010.74
2018-06-01T08:05:56.889Z,1010.73
2018-06-01T08:06:56.873Z,1010.77
2018-06-01T08:07:56.895Z,1010.68
2018-06-01T08:08:56.858Z,1010.70
2018-06-01T08:09:56.875Z,1010.71
2018-06-01T08:10:56.892Z,1010.66
2018-06-01T08:11:56.960Z,1010.70
2018-06-01T08:12:56.936Z,1010.68
2018-06-01T08:13:56.948Z,1010.64
2018-06-01T08:14:56.962Z,1010.68
2018-06-01T08:15:56.982Z,1010.68
2018-06-01T08:16:57.002Z,1010.65
2018-06-01T08:17:57.042Z,1010.67
2018-06-01T08:18:57.047Z,1010.60
2018-06-01T08:19:57.107Z,1010.61
2018-06-01T08:20:57.073Z,1010.63
2018-06-01T08:21:57.100Z,1010.62
2018-06-01T08:22:57.109Z,1010.57
2018-06-01T08:23:57.152Z,1010.64
2018-06-01T08:24:57.146Z,1010.56
2018-06-01T08:25:57.170Z,1010.54
2018-06-01T08:26:57.244Z,1010.60
2018-06-01T08:27:57.202Z,1010.60
2018-06-01T08:28:57.215Z,1010.63
2018-06-01T08:29:57.234Z,1010.59
2018-06-01T08:30:57.256Z,1010.60
2018-06-01T08:31:57.320Z,1010.61
2018-06-01T08:32:57.287Z,1010.64
2018-06-01T08:33:57.309Z,1010.66
2018-06-01T08:34:57.325Z,1010.66
2018-06-01T08:35:57.398Z,1010.70
2018-06-01T08:36:57.363Z,1010.69
2018-06-01T08:37:57.429Z,1010.73
2018-06-01T08:38:57.401Z,1010.74
2018-06-01T08:39:57.417Z,1010.72
2018-06-01T08:40:57.431Z,1010.66
2018-06-01T08:41:57.452Z,1010.64
2018-06-01T08:42:57.471Z,1010.62
2018-06-01T08:43:57.537Z,1010.60
2018-06-01T08:44:57.512Z,1010.57
2018-06-01T08:45:57.526Z,1010.62
2018-06-01T08:46:57.543Z,1010.63
2018-06-01T08:47:57.558Z,1010.65
2018-06-01T08:48:57.583Z,1010.56
2018-06-01T08:49:57.609Z,1010.52
2018-06-01T08:50:57.621Z,1010.50
2018-06-01T08:51:57.648Z,1010.54
2018-06-01T08:52:57.651Z,1010.49
2018-06-01T08:53:57.680Z,1010.61
2018-06-01T08:54:57.699Z,1010.46
2018-06-01T08:55:57.719Z,1010.52
2018-06-01T08:56:57.733Z,1010.42
2018-06-01T08:57:57.748Z,1010.46
2018-06-01T08:58:57.807Z,1010.47
2018-06-01T08:59:57.785Z,1010.54
2018-06-01T09:00:57.808Z,1010.48
2018-06-01T09:01:57.830Z,1010.56
2018-06-01T09:02:57.844Z,1010.46
2018-06-01T09:03:57.868Z,1010.61
2018-06-01T09:04:57.916Z,1010.52
2018-06-01T09:05:57.907Z,1010.51
2018-06-01T09:06:57.923Z,1010.54
2018-06-01T09:07:57.946Z,1010.51
2018-06-01T09:08:57.965Z,1010.53
2018-06-01T09:09:57.981Z,1010.53
2018-06-01T09:10:58.006Z,1010.52
2018-06-01T09:11:58.029Z,1010.52
2018-06-01T09:12:58.034Z,1010.50
2018-06-01T09:13:58.063Z,1010.52
2018-06-01T09:14:58.074Z,1010.52
2018-06-01T09:15:58.096Z,1010.49
2018-06-01T09:16:58.112Z,1010.36
2018-06-01T09:17:58.135Z,1010.36
2018-06-01T09:18:58.233Z,1010.35
2018-06-01T09:19:58.230Z,1010.43
2018-06-01T09:20:58.194Z,1010.42
2018-06-01T09:21:58.218Z,1010.43
2018-06-01T09:22:58.234Z,1010.33
2018-06-01T09:23:58.256Z,1010.43
2018-06-01T09:24:58.284Z,1010.45
2018-06-01T09:25:58.294Z,1010.35
2018-06-01T09:26:58.320Z,1010.47
2018-06-01T09:27:58.341Z,1010.43
2018-06-01T09:28:58.367Z,1010.42
2018-06-01T09:29:58.377Z,1010.46
2018-06-01T09:30:58.464Z,1010.44
2018-06-01T09:31:58.492Z,1010.43
2018-06-01T09:32:58.442Z,1010.36
2018-06-01T09:33:58.464Z,1010.38
2018-06-01T09:34:58.480Z,1010.39
2018-06-01T09:35:58.499Z,1010.39
2018-06-01T09:36:58.521Z,1010.43
2018-06-01T09:37:58.547Z,1010.34
2018-06-01T09:38:58.562Z,1010.37
2018-06-01T09:39:58.589Z,1010.41
2018-06-01T09:40:58.602Z,1010.40
2018-06-01T09:41:58.630Z,1010.48
2018-06-01T09:42:58.679Z,1010.43
2018-06-01T09:43:58.666Z,1010.39
2018-06-01T09:44:58.689Z,1010.44
2018-06-01T09:45:58.708Z,1010.53
2018-06-01T09:46:58.737Z,1010.54
2018-06-01T09:47:58.753Z,1010.49
2018-06-01T09:48:58.772Z,1010.43
2018-06-01T09:49:58.852Z,1010.55
2018-06-01T09:50:58.814Z,1010.53
2018-06-01T09:51:58.834Z,1010.56
2018-06-01T09:52:58.858Z,1010.50
2018-06-01T09:53:58.879Z,1010.42
2018-06-01T09:54:58.906Z,1010.45
2018-06-01T09:55:58.932Z,1010.46
2018-06-01T09:56:58.944Z,1010.41
2018-06-01T09:57:58.960Z,1010.52
2018-06-01T09:58:58.983Z,1010.49
2018-06-01T09:59:59.002Z,1010.55
2018-06-01T10:00:59.080Z,1010.49
2018-06-01T10:01:59.095Z,1010.56
2018-06-01T10:02:59.071Z,1010.56
2018-06-01T10:03:59.125Z,1010.54
2018-06-01T10:04:59.105Z,1010.53
2018-06-01T10:05:59.123Z,1010.54
2018-06-01T10:06:59.166Z,1010.57
2018-06-01T10:07:59.213Z,1010.51
2018-06-01T10:09:59.258Z,1010.52
2018-06-01T10:10:59.228Z,1010.51
2018-06-01T10:11:59.249Z,1010.54
2018-06-01T10:12:59.354Z,1010.56
2018-06-01T10:13:59.337Z,1010.56
2018-06-01T10:14:59.307Z,1010.56
2018-06-01T10:15:59.322Z,1010.54
2018-06-01T10:16:59.346Z,1010.58
2018-06-01T10:17:59.367Z,1010.62
2018-06-01T10:18:59.385Z,1010.59
2018-06-01T10:19:59.454Z,1010.52
2018-06-01T10:20:59.423Z,1010.56
2018-06-01T10:21:59.437Z,1010.54
2018-06-01T10:22:59.457Z,1010.52
2018-06-01T10:23:59.556Z,1010.52
2018-06-01T10:24:59.502Z,1010.51
2018-06-01T10:25:59.570Z,1010.51
2018-06-01T10:26:59.539Z,1010.51
2018-06-01T10:27:59.552Z,1010.53
2018-06-01T10:28:59.579Z,1010.50
2018-06-01T10:29:59.638Z,1010.52
2018-06-01T10:30:59.616Z,1010.49
2018-06-01T10:31:59.685Z,1010.50
2018-06-01T10:32:59.697Z,1010.42
2018-06-01T10:33:59.670Z,1010.44
2018-06-01T10:34:59.688Z,1010.43
2018-06-01T10:35:59.714Z,1010.50
2018-06-01T10:36:59.728Z,1010.49
2018-06-01T10:37:59.799Z,1010.49
2018-06-01T10:38:59.768Z,1010.50
2018-06-01T10:39:59.784Z,1010.51
2018-06-01T10:40:59.805Z,1010.51
2018-06-01T10:41:59.877Z,1010.48
2018-06-01T10:42:59.848Z,1010.47
2018-06-01T10:43:59.913Z,1010.40
2018-06-01T10:44:59.887Z,1010.46
2018-06-01T10:45:59.909Z,1010.48
2018-06-01T10:46:59.926Z,1010.49
2018-06-01T10:47:59.977Z,1010.50
2018-06-01T10:48:59.972Z,1010.43
2018-06-01T10:50:00.091Z,1010.51
2018-06-01T10:51:00.014Z,1010.50
2018-06-01T10:52:00.034Z,1010.43
2018-06-01T10:53:00.052Z,1010.52
2018-06-01T10:54:00.134Z,1010.51
2018-06-01T10:55:00.093Z,1010.55
2018-06-01T10:56:00.172Z,1010.48
2018-06-01T10:57:00.140Z,1010.48
2018-06-01T10:58:00.163Z,1010.52
2018-06-01T10:59:00.178Z,1010.52
2018-06-01T11:00:00.199Z,1010.52
2018-06-01T11:01:00.220Z,1010.57
2018-06-01T11:02:00.238Z,1010.56
2018-06-01T11:03:00.257Z,1010.55
2018-06-01T11:04:00.276Z,1010.53
2018-06-01T11:05:00.300Z,1010.47
2018-06-01T11:06:00.319Z,1010.52
2018-06-01T11:07:00.337Z,1010.54
2018-06-01T11:08:00.378Z,1010.56
2018-06-01T11:09:00.383Z,1010.57
2018-06-01T11:10:00.396Z,1010.53
2018-06-01T11:11:00.418Z,1010.57
2018-06-01T11:12:00.438Z,1010.63
2018-06-01T11:13:00.458Z,1010.64
2018-06-01T11:14:00.527Z,1010.60
2018-06-01T11:15:00.497Z,1010.59
2018-06-01T11:16:00.513Z,1010.59
2018-06-01T11:17:00.536Z,1010.59
2018-06-01T11:18:00.550Z,1010.56
2018-06-01T11:19:00.583Z,1010.59
2018-06-01T11:20:00.594Z,1010.62
2018-06-01T11:21:00.607Z,1010.57
2018-06-01T11:22:00.621Z,1010.58
2018-06-01T11:23:00.650Z,1010.59
2018-06-01T11:24:00.664Z,1010.62
2018-06-01T11:25:00.681Z,1010.49
2018-06-01T11:26:00.753Z,1010.57
2018-06-01T11:27:00.784Z,1010.59
2018-06-01T11:28:00.773Z,1010.50
2018-06-01T11:29:00.778Z,1010.50
2018-06-01T11:30:00.783Z,1010.52
2018-06-01T11:31:00.800Z,1010.53
2018-06-01T11:32:00.819Z,1010.57
2018-06-01T11:33:00.849Z,1010.54
2018-06-01T11:34:00.860Z,1010.51
2018-06-01T11:35:00.881Z,1010.56
2018-06-01T11:36:00.902Z,1010.54
2018-06-01T11:37:00.914Z,1010.54
2018-06-01T11:38:00.936Z,1010.54
2018-06-01T11:39:00.957Z,1010.49
2018-06-01T11:40:00.980Z,1010.51
2018-06-01T11:41:00.997Z,1010.42
2018-06-01T11:42:01.020Z,1010.46
2018-06-01T11:43:01.036Z,1010.47
2018-06-01T11:44:01.055Z,1010.47
2018-06-01T11:45:01.076Z,1010.48
2018-06-01T11:47:01.119Z,1010.40
2018-06-01T11:48:01.128Z,1010.41
2018-06-01T11:49:01.154Z,1010.45
2018-06-01T11:50:01.174Z,1010.42
2018-06-01T11:51:01.184Z,1010.47
2018-06-01T11:52:01.204Z,1010.41
2018-06-01T11:53:01.227Z,1010.43
2018-06-01T11:54:01.245Z,1010.42
2018-06-01T11:55:01.265Z,1010.38
2018-06-01T11:56:01.346Z,1010.47
2018-06-01T11:57:01.302Z,1010.44
2018-06-01T11:58:01.324Z,1010.41
2018-06-01T11:59:01.349Z,1010.52
2018-06-01T12:00:01.365Z,1010.43
2018-06-01T12:01:01.386Z,1010.44
2018-06-01T12:02:01.455Z,1010.40
2018-06-01T12:03:01.426Z,1010.44
2018-06-01T12:04:01.440Z,1010.35
2018-06-01T12:05:01.467Z,1010.36
2018-06-01T12:06:01.480Z,1010.20
2018-06-01T12:07:01.504Z,1010.37
2018-06-01T12:08:01.575Z,1010.33
2018-06-01T12:09:01.550Z,1010.20
2018-06-01T12:10:01.567Z,1010.30